createdAt,value
2023-02-01T00:00:31.400Z,56.57
2023-02-01T00:01:31.386Z,59.11
2023-02-01T00:02:31.442Z,58.32
2023-02-01T00:03:31.348Z,57.06
2023-02-01T00:04:31.378Z,55.74
2023-02-01T00:05:31.333Z,55.14
2023-02-01T00:06:31.321Z,55.08
2023-02-01T00:07:31.330Z,58.93
2023-02-01T00:08:31.367Z,56.34
2023-02-01T00:09:31.306Z,55.81
2023-02-01T00:10:31.307Z,55.41
2023-02-01T00:11:31.292Z,56.33
2023-02-01T00:12:31.311Z,58.23
2023-02-01T00:13:31.302Z,55.96
2023-02-01T00:14:31.284Z,54.98
2023-02-01T00:15:31.254Z,56.55
2023-02-01T00:16:31.252Z,57.13
2023-02-01T00:17:31.270Z,55.52
2023-02-01T00:18:31.247Z,58.62
2023-02-01T00:19:31.245Z,54.65
2023-02-01T00:20:31.280Z,55.96
2023-02-01T00:21:31.207Z,54.83
2023-02-01T00:22:31.200Z,55.19
2023-02-01T00:23:31.195Z,55.25
2023-02-01T00:24:31.208Z,55.00
2023-02-01T00:25:31.193Z,55.11
2023-02-01T00:26:31.332Z,54.94
2023-02-01T00:27:31.207Z,54.91
2023-02-01T00:28:31.203Z,54.73
2023-02-01T00:29:31.179Z,59.02
2023-02-01T00:30:31.170Z,57.17
2023-02-01T00:31:32.382Z,55.73
2023-02-01T00:32:31.201Z,56.68
2023-02-01T00:33:31.146Z,56.04
2023-02-01T00:34:31.148Z,55.84
2023-02-01T00:35:31.135Z,55.45
2023-02-01T00:36:31.265Z,55.39
2023-02-01T00:37:31.226Z,55.85
2023-02-01T00:38:31.171Z,56.20
2023-02-01T00:39:31.113Z,56.67
2023-02-01T00:40:31.093Z,59.08
2023-02-01T00:41:31.105Z,54.93
2023-02-01T00:42:31.107Z,55.56
2023-02-01T00:43:31.079Z,55.50
2023-02-01T00:44:31.133Z,54.74
2023-02-01T00:45:31.073Z,54.63
2023-02-01T00:46:31.064Z,54.72
2023-02-01T00:47:31.100Z,55.54
2023-02-01T00:48:31.080Z,55.42
2023-02-01T00:49:31.062Z,54.42
2023-02-01T00:50:31.317Z,56.12
2023-02-01T00:51:31.054Z,55.21
2023-02-01T00:52:31.033Z,59.31
2023-02-01T00:53:31.015Z,55.99
2023-02-01T00:54:31.082Z,55.08
2023-02-01T00:55:30.986Z,55.45
2023-02-01T00:56:31.076Z,55.26
2023-02-01T00:57:30.972Z,54.96
2023-02-01T00:58:30.997Z,54.71
2023-02-01T00:59:31.126Z,54.59
2023-02-01T01:00:30.984Z,54.70
2023-02-01T01:01:30.949Z,55.57
2023-02-01T01:02:31.008Z,55.95
2023-02-01T01:03:30.935Z,55.10
2023-02-01T01:04:30.956Z,55.52
2023-02-01T01:05:30.945Z,56.57
2023-02-01T01:06:30.943Z,56.47
2023-02-01T01:07:30.927Z,56.99
2023-02-01T01:08:30.959Z,55.93
2023-02-01T01:09:30.905Z,55.71
2023-02-01T01:10:30.882Z,54.80
2023-02-01T01:11:30.875Z,55.10
2023-02-01T01:12:30.872Z,57.09
2023-02-01T01:13:30.867Z,55.59
2023-02-01T01:14:30.922Z,55.61
2023-02-01T01:15:30.863Z,55.34
2023-02-01T01:16:30.880Z,55.54
2023-02-01T01:17:30.838Z,56.54
2023-02-01T01:18:30.861Z,55.94
2023-02-01T01:19:30.825Z,55.96
2023-02-01T01:20:30.875Z,56.87
2023-02-01T01:21:30.820Z,59.00
2023-02-01T01:22:30.821Z,55.50
2023-02-01T01:23:30.789Z,57.31
2023-02-01T01:24:30.794Z,56.89
2023-02-01T01:25:30.794Z,56.37
2023-02-01T01:26:30.978Z,55.21
2023-02-01T01:27:30.790Z,55.55
2023-02-01T01:28:30.749Z,56.02
2023-02-01T01:29:30.755Z,56.20
2023-02-01T01:30:30.801Z,55.12
2023-02-01T01:31:30.790Z,54.91
2023-02-01T01:32:30.766Z,54.55
2023-02-01T01:33:30.750Z,54.46
2023-02-01T01:34:30.746Z,54.77
2023-02-01T01:35:30.736Z,55.36
2023-02-01T01:36:30.702Z,56.33
2023-02-01T01:37:30.690Z,55.78
2023-02-01T01:38:30.732Z,55.56
2023-02-01T01:39:30.712Z,56.34
2023-02-01T01:40:30.678Z,61.83
2023-02-01T01:41:30.659Z,55.39
2023-02-01T01:42:30.659Z,54.88
2023-02-01T01:43:30.667Z,54.63
2023-02-01T01:44:30.709Z,55.70
2023-02-01T01:45:30.687Z,61.00
2023-02-01T01:46:30.783Z,58.62
2023-02-01T01:47:30.639Z,55.82
2023-02-01T01:48:30.631Z,56.96
2023-02-01T01:49:30.623Z,60.54
2023-02-01T01:50:30.678Z,57.15
2023-02-01T01:51:30.611Z,55.40
2023-02-01T01:52:30.604Z,54.96
2023-02-01T01:53:30.593Z,55.68
2023-02-01T01:54:30.580Z,56.05
2023-02-01T01:55:30.590Z,55.15
2023-02-01T01:56:31.176Z,58.14
2023-02-01T01:57:30.562Z,55.50
2023-02-01T01:58:30.569Z,55.54
2023-02-01T01:59:30.547Z,56.10
2023-02-01T02:00:30.579Z,56.00
2023-02-01T02:01:30.525Z,57.41
2023-02-01T02:02:30.570Z,55.39
2023-02-01T02:03:30.512Z,55.52
2023-02-01T02:04:30.524Z,55.65
2023-02-01T02:05:30.518Z,58.05
2023-02-01T02:06:30.485Z,56.24
2023-02-01T02:07:30.492Z,55.85
2023-02-01T02:08:30.538Z,55.06
2023-02-01T02:09:30.476Z,55.17
2023-02-01T02:10:30.488Z,56.31
2023-02-01T02:11:30.444Z,55.19
2023-02-01T02:12:30.484Z,55.08
2023-02-01T02:13:30.457Z,57.91
2023-02-01T02:14:30.498Z,55.79
2023-02-01T02:15:30.426Z,54.79
2023-02-01T02:16:30.505Z,54.71
2023-02-01T02:17:30.411Z,54.47
2023-02-01T02:18:30.432Z,54.70
2023-02-01T02:19:30.409Z,55.15
2023-02-01T02:20:30.427Z,56.96
2023-02-01T02:21:30.393Z,54.39
2023-02-01T02:22:30.381Z,55.26
2023-02-01T02:23:30.380Z,55.01
2023-02-01T02:24:30.359Z,55.26
2023-02-01T02:25:30.348Z,55.13
2023-02-01T02:26:30.478Z,56.07
2023-02-01T02:27:33.751Z,56.29
2023-02-01T02:28:30.332Z,56.66
2023-02-01T02:29:30.333Z,56.73
2023-02-01T02:30:30.363Z,56.31
2023-02-01T02:31:30.376Z,55.33
2023-02-01T02:32:30.389Z,57.05
2023-02-01T02:33:30.295Z,56.46
2023-02-01T02:34:30.312Z,55.47
2023-02-01T02:35:30.289Z,54.77
2023-02-01T02:36:30.277Z,54.94
2023-02-01T02:37:30.279Z,55.23
2023-02-01T02:38:30.343Z,54.80
2023-02-01T02:39:30.277Z,54.70
2023-02-01T02:40:30.302Z,55.21
2023-02-01T02:41:30.227Z,54.95
2023-02-01T02:42:30.238Z,54.66
2023-02-01T02:43:30.227Z,54.57
2023-02-01T02:44:30.257Z,54.54
2023-02-01T02:45:30.306Z,54.82
2023-02-01T02:46:30.227Z,55.34
2023-02-01T02:47:30.204Z,55.02
2023-02-01T02:48:30.205Z,54.60
2023-02-01T02:49:30.186Z,54.61
2023-02-01T02:50:30.250Z,55.05
2023-02-01T02:51:30.196Z,58.04
2023-02-01T02:52:30.176Z,55.92
2023-02-01T02:53:30.172Z,56.17
2023-02-01T02:54:30.176Z,55.39
2023-02-01T02:55:30.162Z,55.09
2023-02-01T02:56:30.197Z,56.35
2023-02-01T02:57:30.112Z,55.70
2023-02-01T02:58:30.147Z,55.50
2023-02-01T02:59:30.141Z,55.12
2023-02-01T03:00:30.136Z,55.42
2023-02-01T03:01:30.107Z,55.89
2023-02-01T03:02:30.604Z,57.79
2023-02-01T03:03:30.079Z,55.46
2023-02-01T03:04:30.099Z,54.81
2023-02-01T03:05:30.087Z,54.56
2023-02-01T03:06:30.053Z,55.20
2023-02-01T03:07:30.078Z,57.11
2023-02-01T03:08:30.112Z,56.61
2023-02-01T03:09:30.042Z,56.48
2023-02-01T03:10:30.050Z,54.92
2023-02-01T03:11:30.021Z,55.51
2023-02-01T03:12:30.041Z,55.57
2023-02-01T03:13:30.022Z,54.58
2023-02-01T03:14:30.071Z,55.46
2023-02-01T03:15:30.011Z,55.43
2023-02-01T03:16:30.049Z,57.31
2023-02-01T03:17:29.990Z,55.24
2023-02-01T03:18:30.002Z,55.26
2023-02-01T03:19:29.965Z,55.56
2023-02-01T03:20:30.016Z,57.26
2023-02-01T03:21:29.978Z,55.59
2023-02-01T03:22:29.960Z,55.31
2023-02-01T03:23:29.932Z,55.10
2023-02-01T03:24:29.935Z,54.94
2023-02-01T03:25:29.967Z,55.60
2023-02-01T03:26:30.103Z,56.02
2023-02-01T03:27:29.940Z,55.70
2023-02-01T03:28:29.919Z,57.48
2023-02-01T03:29:29.931Z,55.21
2023-02-01T03:30:29.894Z,55.74
2023-02-01T03:31:29.974Z,55.53
2023-02-01T03:32:29.949Z,55.81
2023-02-01T03:33:29.883Z,54.75
2023-02-01T03:34:29.881Z,55.39
2023-02-01T03:35:29.865Z,54.66
2023-02-01T03:36:29.870Z,55.14
2023-02-01T03:37:29.850Z,54.92
2023-02-01T03:38:29.903Z,55.98
2023-02-01T03:39:29.817Z,55.40
2023-02-01T03:40:29.861Z,55.04
2023-02-01T03:41:29.814Z,54.96
2023-02-01T03:42:29.829Z,55.01
2023-02-01T03:43:29.782Z,55.28
2023-02-01T03:44:29.855Z,56.36
2023-02-01T03:45:29.846Z,55.69
2023-02-01T03:46:29.811Z,56.38
2023-02-01T03:47:29.771Z,57.64
2023-02-01T03:48:29.799Z,55.02
2023-02-01T03:49:29.750Z,54.86
2023-02-01T03:50:29.816Z,55.96
2023-02-01T03:51:29.726Z,55.55
2023-02-01T03:52:29.748Z,55.97
2023-02-01T03:53:29.750Z,57.80
2023-02-01T03:54:29.732Z,55.53
2023-02-01T03:55:29.739Z,55.90
2023-02-01T03:56:29.780Z,54.56
2023-02-01T03:57:29.724Z,54.51
2023-02-01T03:58:29.786Z,54.87
2023-02-01T03:59:29.707Z,54.79
2023-02-01T04:00:29.693Z,55.00
2023-02-01T04:01:29.754Z,55.06
2023-02-01T04:02:29.777Z,54.85
2023-02-01T04:03:29.689Z,56.33
2023-02-01T04:04:29.665Z,55.30
2023-02-01T04:05:29.655Z,54.89
2023-02-01T04:06:29.652Z,55.21
2023-02-01T04:07:29.647Z,55.08
2023-02-01T04:08:29.982Z,56.62
2023-02-01T04:09:29.627Z,55.26
2023-02-01T04:10:29.637Z,55.49
2023-02-01T04:11:29.610Z,56.52
2023-02-01T04:12:29.615Z,55.49
2023-02-01T04:13:29.602Z,55.61
2023-02-01T04:14:29.653Z,56.17
2023-02-01T04:15:29.568Z,56.79
2023-02-01T04:16:29.603Z,56.78
2023-02-01T04:17:29.579Z,54.87
2023-02-01T04:18:29.595Z,54.75
2023-02-01T04:19:29.558Z,55.32
2023-02-01T04:20:29.625Z,55.36
2023-02-01T04:21:29.538Z,56.81
2023-02-01T04:22:29.569Z,55.04
2023-02-01T04:23:29.523Z,54.88
2023-02-01T04:24:29.535Z,57.32
2023-02-01T04:25:29.515Z,59.21
2023-02-01T04:26:29.598Z,54.93
2023-02-01T04:27:29.492Z,57.27
2023-02-01T04:28:29.507Z,56.14
2023-02-01T04:29:29.466Z,55.35
2023-02-01T04:30:29.557Z,55.48
2023-02-01T04:31:29.578Z,55.76
2023-02-01T04:32:29.520Z,56.76
2023-02-01T04:33:29.461Z,55.45
2023-02-01T04:34:29.456Z,55.88
2023-02-01T04:35:29.467Z,56.06
2023-02-01T04:36:29.414Z,55.94
2023-02-01T04:37:29.439Z,56.31
2023-02-01T04:38:29.457Z,56.44
2023-02-01T04:39:29.421Z,56.82
2023-02-01T04:40:29.528Z,56.90
2023-02-01T04:41:29.425Z,56.05
2023-02-01T04:42:29.389Z,56.99
2023-02-01T04:43:29.383Z,60.17
2023-02-01T04:44:29.430Z,58.35
2023-02-01T04:45:29.367Z,56.46
2023-02-01T04:46:29.457Z,58.94
2023-02-01T04:47:29.350Z,59.86
2023-02-01T04:48:29.357Z,57.40
2023-02-01T04:49:29.329Z,58.73
2023-02-01T04:50:29.383Z,55.92
2023-02-01T04:51:29.316Z,56.98
2023-02-01T04:52:29.332Z,61.05
2023-02-01T04:53:29.323Z,57.99
2023-02-01T04:54:29.275Z,56.33
2023-02-01T04:55:30.142Z,56.96
2023-02-01T04:56:29.353Z,56.57
2023-02-01T04:57:29.255Z,57.09
2023-02-01T04:58:29.296Z,58.77
2023-02-01T04:59:29.328Z,58.39
2023-02-01T05:00:29.265Z,57.23
2023-02-01T05:01:29.310Z,59.87
2023-02-01T05:02:29.350Z,57.35
2023-02-01T05:03:29.239Z,58.62
2023-02-01T05:04:29.362Z,58.75
2023-02-01T05:05:29.232Z,57.15
2023-02-01T05:06:29.255Z,56.94
2023-02-01T05:07:29.230Z,59.35
2023-02-01T05:08:29.322Z,57.09
2023-02-01T05:09:29.202Z,57.14
2023-02-01T05:10:29.201Z,58.59
2023-02-01T05:11:29.184Z,56.40
2023-02-01T05:12:29.201Z,57.37
2023-02-01T05:13:29.170Z,57.07
2023-02-01T05:14:29.212Z,58.30
2023-02-01T05:15:29.204Z,57.30
2023-02-01T05:16:29.152Z,56.74
2023-02-01T05:17:29.152Z,58.67
2023-02-01T05:18:29.158Z,56.26
2023-02-01T05:19:29.132Z,59.17
2023-02-01T05:20:29.178Z,58.37
2023-02-01T05:21:29.127Z,56.78
2023-02-01T05:22:29.224Z,58.43
2023-02-01T05:23:29.098Z,57.09
2023-02-01T05:24:29.148Z,58.18
2023-02-01T05:25:29.119Z,58.64
2023-02-01T05:26:29.137Z,56.64
2023-02-01T05:27:29.063Z,57.01
2023-02-01T05:28:29.292Z,56.60
2023-02-01T05:29:29.064Z,58.37
2023-02-01T05:30:29.039Z,59.20
2023-02-01T05:31:29.145Z,59.65
2023-02-01T05:32:29.133Z,58.14
2023-02-01T05:33:29.010Z,57.84
2023-02-01T05:34:29.013Z,58.44
2023-02-01T05:35:29.016Z,59.22
2023-02-01T05:36:29.035Z,58.70
2023-02-01T05:37:29.018Z,58.22
2023-02-01T05:38:29.046Z,58.87
2023-02-01T05:39:28.997Z,58.17
2023-02-01T05:40:29.002Z,58.75
2023-02-01T05:41:28.994Z,57.70
2023-02-01T05:42:28.981Z,58.82
2023-02-01T05:43:28.958Z,61.12
2023-02-01T05:44:28.986Z,59.56
2023-02-01T05:45:28.967Z,57.31
2023-02-01T05:46:28.995Z,59.20
2023-02-01T05:47:28.951Z,59.62
2023-02-01T05:48:28.936Z,59.80
2023-02-01T05:49:28.929Z,61.37
2023-02-01T05:50:28.989Z,64.59
2023-02-01T05:51:28.919Z,63.78
2023-02-01T05:52:28.922Z,59.98
2023-02-01T05:53:28.897Z,61.08
2023-02-01T05:54:28.906Z,59.35
2023-02-01T05:55:28.868Z,59.53
2023-02-01T05:56:28.909Z,58.82
2023-02-01T05:57:28.872Z,60.22
2023-02-01T05:58:30.654Z,61.30
2023-02-01T05:59:28.848Z,59.34
2023-02-01T06:00:28.845Z,59.29
2023-02-01T06:01:28.825Z,60.45
2023-02-01T06:02:28.913Z,58.76
2023-02-01T06:03:28.861Z,61.35
2023-02-01T06:04:28.805Z,59.67
2023-02-01T06:05:28.818Z,58.44
2023-02-01T06:06:29.038Z,58.57
2023-02-01T06:07:29.805Z,57.58
2023-02-01T06:08:29.104Z,59.30
2023-02-01T06:09:28.787Z,60.53
2023-02-01T06:10:28.792Z,60.47
2023-02-01T06:11:33.115Z,59.83
2023-02-01T06:12:30.796Z,58.55
2023-02-01T06:13:29.008Z,58.86
2023-02-01T06:14:29.308Z,58.47
2023-02-01T06:15:28.728Z,59.09
2023-02-01T06:16:28.793Z,61.63
2023-02-01T06:17:28.687Z,60.22
2023-02-01T06:18:28.713Z,61.27
2023-02-01T06:19:28.696Z,61.79
2023-02-01T06:20:28.724Z,60.80
2023-02-01T06:21:28.692Z,60.35
2023-02-01T06:22:28.659Z,60.25
2023-02-01T06:23:28.673Z,61.01
2023-02-01T06:24:28.671Z,58.67
2023-02-01T06:25:28.647Z,60.77
2023-02-01T06:26:28.690Z,60.30
2023-02-01T06:27:28.642Z,62.16
2023-02-01T06:28:28.605Z,60.18
2023-02-01T06:29:28.621Z,61.23
2023-02-01T06:30:28.635Z,58.69
2023-02-01T06:31:28.742Z,61.14
2023-02-01T06:32:28.685Z,62.19
2023-02-01T06:33:28.609Z,61.10
2023-02-01T06:34:28.592Z,60.26
2023-02-01T06:35:28.557Z,59.99
2023-02-01T06:36:28.581Z,60.88
2023-02-01T06:37:28.569Z,60.48
2023-02-01T06:38:28.638Z,60.66
2023-02-01T06:39:28.548Z,59.62
2023-02-01T06:40:28.532Z,61.32
2023-02-01T06:41:29.672Z,62.61
2023-02-01T06:42:28.512Z,61.68
2023-02-01T06:43:28.528Z,61.50
2023-02-01T06:44:28.575Z,62.47
2023-02-01T06:45:28.528Z,61.46
2023-02-01T06:46:28.521Z,59.38
2023-02-01T06:47:28.500Z,60.85
2023-02-01T06:48:28.501Z,61.58
2023-02-01T06:49:28.472Z,61.30
2023-02-01T06:50:28.550Z,62.73
2023-02-01T06:51:28.482Z,64.09
2023-02-01T06:52:28.469Z,61.11
2023-02-01T06:53:28.428Z,61.76
2023-02-01T06:54:28.443Z,61.82
2023-02-01T06:55:28.448Z,61.00
2023-02-01T06:56:28.541Z,61.64
2023-02-01T06:57:28.422Z,60.98
2023-02-01T06:58:28.431Z,60.71
2023-02-01T06:59:28.416Z,59.72
2023-02-01T07:00:28.420Z,62.69
2023-02-01T07:01:28.425Z,62.82
2023-02-01T07:02:28.437Z,61.65
2023-02-01T07:03:28.397Z,60.80
2023-02-01T07:04:28.397Z,62.74
2023-02-01T07:05:28.391Z,61.58
2023-02-01T07:06:28.352Z,61.55
2023-02-01T07:07:28.366Z,59.56
2023-02-01T07:08:28.394Z,61.81
2023-02-01T07:09:28.340Z,59.80
2023-02-01T07:10:28.355Z,61.48
2023-02-01T07:11:28.395Z,61.99
2023-02-01T07:12:28.341Z,59.17
2023-02-01T07:13:28.292Z,61.45
2023-02-01T07:14:28.820Z,60.66
2023-02-01T07:15:28.296Z,59.51
2023-02-01T07:16:28.303Z,62.35
2023-02-01T07:17:28.277Z,62.32
2023-02-01T07:18:28.285Z,62.79
2023-02-01T07:19:28.311Z,61.60
2023-02-01T07:20:28.329Z,60.46
2023-02-01T07:21:28.285Z,60.94
2023-02-01T07:22:28.253Z,62.36
2023-02-01T07:23:28.246Z,61.29
2023-02-01T07:24:28.227Z,62.25
2023-02-01T07:25:28.227Z,59.89
2023-02-01T07:26:28.345Z,62.04
2023-02-01T07:27:28.213Z,61.96
2023-02-01T07:28:28.202Z,62.43
2023-02-01T07:29:28.201Z,60.80
2023-02-01T07:30:28.208Z,60.90
2023-02-01T07:31:28.205Z,60.50
2023-02-01T07:32:28.262Z,63.45
2023-02-01T07:33:28.292Z,61.55
2023-02-01T07:34:28.182Z,60.99
2023-02-01T07:35:28.199Z,60.61
2023-02-01T07:36:28.165Z,59.58
2023-02-01T07:37:28.140Z,60.28
2023-02-01T07:38:28.244Z,60.91
2023-02-01T07:39:28.136Z,62.49
2023-02-01T07:40:28.138Z,60.42
2023-02-01T07:41:28.129Z,61.47
2023-02-01T07:42:28.126Z,59.80
2023-02-01T07:43:28.110Z,58.70
2023-02-01T07:44:28.134Z,62.36
2023-02-01T07:45:28.146Z,60.47
2023-02-01T07:46:28.079Z,59.50
2023-02-01T07:47:28.081Z,60.73
2023-02-01T07:48:28.067Z,62.40
2023-02-01T07:49:28.069Z,62.66
2023-02-01T07:50:28.159Z,62.45
2023-02-01T07:51:28.041Z,61.98
2023-02-01T07:52:28.036Z,62.20
2023-02-01T07:53:28.033Z,61.22
2023-02-01T07:54:27.996Z,61.42
2023-02-01T07:55:28.013Z,59.84
2023-02-01T07:56:28.070Z,60.27
2023-02-01T07:57:28.034Z,61.35
2023-02-01T07:58:28.004Z,61.09
2023-02-01T07:59:28.021Z,60.75
2023-02-01T08:00:28.056Z,59.09
2023-02-01T08:01:28.072Z,60.06
2023-02-01T08:02:28.118Z,60.28
2023-02-01T08:03:27.996Z,59.38
2023-02-01T08:04:27.927Z,61.91
2023-02-01T08:05:27.963Z,59.62
2023-02-01T08:06:27.941Z,61.94
2023-02-01T08:07:27.908Z,60.63
2023-02-01T08:08:27.978Z,61.63
2023-02-01T08:09:27.926Z,61.82
2023-02-01T08:10:27.913Z,62.97
2023-02-01T08:11:27.937Z,61.41
2023-02-01T08:12:27.898Z,59.42
2023-02-01T08:13:27.891Z,59.00
2023-02-01T08:14:27.952Z,58.81
2023-02-01T08:15:27.889Z,61.66
2023-02-01T08:16:27.903Z,60.33
2023-02-01T08:17:27.865Z,61.97
2023-02-01T08:18:27.837Z,58.52
2023-02-01T08:19:27.856Z,59.86
2023-02-01T08:20:28.155Z,61.31
2023-02-01T08:21:27.850Z,59.01
2023-02-01T08:22:27.866Z,59.33
2023-02-01T08:23:27.829Z,61.09
2023-02-01T08:24:27.818Z,60.60
2023-02-01T08:25:27.817Z,59.78
2023-02-01T08:26:27.890Z,59.80
2023-02-01T08:27:27.797Z,59.73
2023-02-01T08:28:27.771Z,58.90
2023-02-01T08:29:27.779Z,60.80
2023-02-01T08:30:27.803Z,62.49
2023-02-01T08:31:27.875Z,61.05
2023-02-01T08:32:27.824Z,60.65
2023-02-01T08:33:27.750Z,61.27
2023-02-01T08:34:27.736Z,61.81
2023-02-01T08:35:41.435Z,60.85
2023-02-01T08:36:28.729Z,59.54
2023-02-01T08:37:27.733Z,59.54
2023-02-01T08:38:27.781Z,60.95
2023-02-01T08:39:27.706Z,60.70
2023-02-01T08:40:27.710Z,67.56
2023-02-01T08:41:27.699Z,72.61
2023-02-01T08:42:27.710Z,59.55
2023-02-01T08:43:27.692Z,59.89
2023-02-01T08:44:27.727Z,59.71
2023-02-01T08:45:27.683Z,59.85
2023-02-01T08:46:27.779Z,62.06
2023-02-01T08:47:27.637Z,61.81
2023-02-01T08:48:27.639Z,62.54
2023-02-01T08:49:27.639Z,60.95
2023-02-01T08:50:27.748Z,59.50
2023-02-01T08:51:27.626Z,59.91
2023-02-01T08:52:27.618Z,59.98
2023-02-01T08:53:27.612Z,60.15
2023-02-01T08:54:27.603Z,61.00
2023-02-01T08:55:27.640Z,66.91
2023-02-01T08:56:27.699Z,61.45
2023-02-01T08:57:27.599Z,59.80
2023-02-01T08:58:27.591Z,60.28
2023-02-01T08:59:28.723Z,62.75
2023-02-01T09:00:27.675Z,59.51
2023-02-01T09:01:27.611Z,62.43
2023-02-01T09:02:27.592Z,60.34
2023-02-01T09:03:27.549Z,60.98
2023-02-01T09:04:27.532Z,61.69
2023-02-01T09:05:30.978Z,62.24
2023-02-01T09:06:28.517Z,59.87
2023-02-01T09:07:27.501Z,60.90
2023-02-01T09:08:44.431Z,61.41
2023-02-01T09:09:28.502Z,60.75
2023-02-01T09:10:35.124Z,58.92
2023-02-01T09:11:28.496Z,59.15
2023-02-01T09:12:27.485Z,61.04
2023-02-01T09:13:27.446Z,60.17
2023-02-01T09:14:27.510Z,59.25
2023-02-01T09:15:27.490Z,59.24
2023-02-01T09:16:27.429Z,59.51
2023-02-01T09:18:27.431Z,61.06
2023-02-01T09:19:27.616Z,61.16
2023-02-01T09:20:27.526Z,60.43
2023-02-01T09:21:27.402Z,60.47
2023-02-01T09:22:27.403Z,60.56
2023-02-01T09:23:27.403Z,58.98
2023-02-01T09:24:27.397Z,60.37
2023-02-01T09:25:27.456Z,60.53
2023-02-01T09:26:32.044Z,60.63
2023-02-01T09:27:28.382Z,60.79
2023-02-01T09:28:27.339Z,63.01
2023-02-01T09:29:27.393Z,61.05
2023-02-01T09:30:28.639Z,60.52
2023-02-01T09:31:27.554Z,61.09
2023-02-01T09:32:27.489Z,61.67
2023-02-01T09:33:27.328Z,60.79
2023-02-01T09:34:27.341Z,60.29
2023-02-01T09:35:27.332Z,61.11
2023-02-01T09:36:29.383Z,59.98
2023-02-01T09:37:27.275Z,60.10
2023-02-01T09:38:28.429Z,59.27
2023-02-01T09:39:27.300Z,60.58
2023-02-01T09:40:27.719Z,58.19
2023-02-01T09:41:27.313Z,59.39
2023-02-01T09:42:28.220Z,59.28
2023-02-01T09:43:27.278Z,60.91
2023-02-01T09:44:30.078Z,60.75
2023-02-01T09:45:28.241Z,61.30
2023-02-01T09:46:27.305Z,58.65
2023-02-01T09:47:27.251Z,63.43
2023-02-01T09:48:28.942Z,62.07
2023-02-01T09:49:27.300Z,61.17
2023-02-01T09:50:27.499Z,60.85
2023-02-01T09:51:27.213Z,59.36
2023-02-01T09:52:27.178Z,60.36
2023-02-01T09:53:27.173Z,60.29
2023-02-01T09:54:28.485Z,61.51
2023-02-01T09:55:27.182Z,61.86
2023-02-01T09:56:27.231Z,61.66
2023-02-01T09:57:27.153Z,61.54
2023-02-01T09:58:27.127Z,59.96
2023-02-01T09:59:27.133Z,59.79
2023-02-01T10:00:27.395Z,59.59
2023-02-01T10:01:27.206Z,63.25
2023-02-01T10:02:27.730Z,62.65
2023-02-01T10:03:27.162Z,59.88
2023-02-01T10:04:27.097Z,58.27
2023-02-01T10:05:27.087Z,60.67
2023-02-01T10:06:27.534Z,60.51
2023-02-01T10:07:27.088Z,59.70
2023-02-01T10:08:27.120Z,61.46
2023-02-01T10:09:27.107Z,58.72
2023-02-01T10:10:27.216Z,59.02
2023-02-01T10:11:27.045Z,61.21
2023-02-01T10:12:27.029Z,60.32
2023-02-01T10:13:27.055Z,58.25
2023-02-01T10:14:27.176Z,58.10
2023-02-01T10:15:27.026Z,61.60
2023-02-01T10:16:27.107Z,65.16
2023-02-01T10:17:27.014Z,60.59
2023-02-01T10:18:26.997Z,62.53
2023-02-01T10:19:27.001Z,60.34
2023-02-01T10:20:27.417Z,58.81
2023-02-01T10:21:27.019Z,60.96
2023-02-01T10:22:48.318Z,59.70
2023-02-01T10:23:34.362Z,58.98
2023-02-01T10:24:30.155Z,61.26
2023-02-01T10:25:26.976Z,61.92
2023-02-01T10:26:27.545Z,60.38
2023-02-01T10:27:26.926Z,60.57
2023-02-01T10:28:26.922Z,59.06
2023-02-01T10:29:26.933Z,58.82
2023-02-01T10:30:27.292Z,59.13
2023-02-01T10:31:27.000Z,62.03
2023-02-01T10:32:26.958Z,61.06
2023-02-01T10:33:26.884Z,60.20
2023-02-01T10:34:26.904Z,62.15
2023-02-01T10:35:26.929Z,59.82
2023-02-01T10:36:26.956Z,59.54
2023-02-01T10:37:26.865Z,59.40
2023-02-01T10:38:26.915Z,58.08
2023-02-01T10:39:26.847Z,59.62
2023-02-01T10:40:27.221Z,60.27
2023-02-01T10:41:26.898Z,58.36
2023-02-01T10:42:26.871Z,61.96
2023-02-01T10:43:26.892Z,61.58
2023-02-01T10:44:26.873Z,60.12
2023-02-01T10:45:26.834Z,60.65
2023-02-01T10:46:26.949Z,59.18
2023-02-01T10:47:27.844Z,61.51
2023-02-01T10:48:26.858Z,60.20
2023-02-01T10:49:26.770Z,61.84
2023-02-01T10:50:26.793Z,62.71
2023-02-01T10:51:26.741Z,59.91
2023-02-01T10:52:26.752Z,60.18
2023-02-01T10:53:26.753Z,61.90
2023-02-01T10:54:26.791Z,60.23
2023-02-01T10:55:26.723Z,59.69
2023-02-01T10:56:26.775Z,60.93
2023-02-01T10:57:26.792Z,59.48
2023-02-01T10:58:26.734Z,59.36
2023-02-01T10:59:26.693Z,60.71
2023-02-01T11:00:26.669Z,59.82
2023-02-01T11:01:26.710Z,62.29
2023-02-01T11:02:26.743Z,62.78
2023-02-01T11:03:26.670Z,62.12
2023-02-01T11:04:26.662Z,60.22
2023-02-01T11:05:26.662Z,61.70
2023-02-01T11:06:26.641Z,59.74
2023-02-01T11:07:26.674Z,59.00
2023-02-01T11:08:26.685Z,63.39
2023-02-01T11:09:26.647Z,61.28
2023-02-01T11:10:26.588Z,58.04
2023-02-01T11:11:26.642Z,60.97
2023-02-01T11:12:26.644Z,60.85
2023-02-01T11:13:26.634Z,60.67
2023-02-01T11:14:26.655Z,60.86
2023-02-01T11:15:26.860Z,60.81
2023-02-01T11:16:26.616Z,60.70
2023-02-01T11:17:26.584Z,60.49
2023-02-01T11:18:26.583Z,61.44
2023-02-01T11:19:26.551Z,60.29
2023-02-01T11:20:26.586Z,58.26
2023-02-01T11:21:26.570Z,59.11
2023-02-01T11:22:26.536Z,58.93
2023-02-01T11:23:26.538Z,58.14
2023-02-01T11:24:26.513Z,60.64
2023-02-01T11:25:26.871Z,60.28
2023-02-01T11:26:26.651Z,60.21
2023-02-01T11:27:27.797Z,59.03
2023-02-01T11:28:26.484Z,61.37
2023-02-01T11:29:26.480Z,61.98
2023-02-01T11:30:26.534Z,61.91
2023-02-01T11:31:26.540Z,61.09
2023-02-01T11:32:27.032Z,62.21
2023-02-01T11:33:26.451Z,60.99
2023-02-01T11:34:26.475Z,59.92
2023-02-01T11:35:26.453Z,62.78
2023-02-01T11:36:26.467Z,62.43
2023-02-01T11:37:26.402Z,60.84
2023-02-01T11:38:26.503Z,59.60
2023-02-01T11:39:26.449Z,59.31
2023-02-01T11:40:26.519Z,62.72
2023-02-01T11:41:26.406Z,59.16
2023-02-01T11:42:26.445Z,60.71
2023-02-01T11:43:26.375Z,59.01
2023-02-01T11:44:26.423Z,58.70
2023-02-01T11:45:26.370Z,59.82
2023-02-01T11:46:26.546Z,59.10
2023-02-01T11:47:26.547Z,60.62
2023-02-01T11:48:27.428Z,58.82
2023-02-01T11:49:26.348Z,59.89
2023-02-01T11:50:26.513Z,58.99
2023-02-01T11:51:26.337Z,61.96
2023-02-01T11:52:26.321Z,60.40
2023-02-01T11:53:26.345Z,58.09
2023-02-01T11:54:26.308Z,59.71
2023-02-01T11:55:26.372Z,60.49
2023-02-01T11:56:26.498Z,59.41
2023-02-01T11:57:26.278Z,59.87
2023-02-01T11:58:26.281Z,60.61
2023-02-01T11:59:26.338Z,60.45
2023-02-01T12:00:26.383Z,57.76
2023-02-01T12:01:26.270Z,58.13
2023-02-01T12:02:26.374Z,58.85
2023-02-01T12:03:26.326Z,59.35
2023-02-01T12:04:26.278Z,60.90
2023-02-01T12:05:26.253Z,60.11
2023-02-01T12:06:27.297Z,60.80
2023-02-01T12:07:26.263Z,62.79
2023-02-01T12:08:26.254Z,61.44
2023-02-01T12:09:26.193Z,61.49
2023-02-01T12:10:26.292Z,61.36
2023-02-01T12:11:26.257Z,60.85
2023-02-01T12:12:26.235Z,60.99
2023-02-01T12:13:26.190Z,60.45
2023-02-01T12:14:26.233Z,61.82
2023-02-01T12:15:26.128Z,61.14
2023-02-01T12:16:26.157Z,59.94
2023-02-01T12:17:26.165Z,59.48
2023-02-01T12:18:26.132Z,61.94
2023-02-01T12:19:26.165Z,60.83
2023-02-01T12:20:26.655Z,59.05
2023-02-01T12:21:26.118Z,60.59
2023-02-01T12:22:26.081Z,60.71
2023-02-01T12:23:26.111Z,60.45
2023-02-01T12:24:26.095Z,61.14
2023-02-01T12:25:26.076Z,59.32
2023-02-01T12:26:26.151Z,61.38
2023-02-01T12:27:27.183Z,60.75
2023-02-01T12:28:26.044Z,63.09
2023-02-01T12:29:26.104Z,63.53
2023-02-01T12:30:26.228Z,62.04
2023-02-01T12:31:26.046Z,62.45
2023-02-01T12:32:26.085Z,62.50
2023-02-01T12:33:26.002Z,61.94
2023-02-01T12:34:25.988Z,58.85
2023-02-01T12:35:26.008Z,59.91
2023-02-01T12:36:25.997Z,61.73
2023-02-01T12:37:26.006Z,68.18
2023-02-01T12:38:26.494Z,61.43
2023-02-01T12:39:26.026Z,64.53
2023-02-01T12:40:26.174Z,61.73
2023-02-01T12:41:25.991Z,60.04
2023-02-01T12:42:25.987Z,60.57
2023-02-01T12:43:25.957Z,59.39
2023-02-01T12:44:25.978Z,58.13
2023-02-01T12:45:26.146Z,60.68
2023-02-01T12:46:25.939Z,58.09
2023-02-01T12:47:26.003Z,62.56
2023-02-01T12:48:25.920Z,61.75
2023-02-01T12:49:25.939Z,63.00
2023-02-01T12:50:26.176Z,60.87
2023-02-01T12:51:25.906Z,60.11
2023-02-01T12:52:25.961Z,59.81
2023-02-01T12:53:25.877Z,60.59